Time;durP1;ratioP1;P1;durP2;ratioP2;P2;SDS_P1;SDS_P2;PMS_P1;PMS_P2;Temp;Humidity;BMP_temperature;BMP_pressure;BME280_temperature;BME280_humidity;BME280_pressure;Samples;Min_cycle;Max_cycle;Signal;HPM_P1;HPM_P2
2021/11/17 02:27:05;;;;;;;15.98;9.25;;;;;;;;;;5026947;28;20203;-78
2021/11/17 02:29:41;;;;;;;15.02;9.38;;;;;;;;;;5038953;28;20300;-78
2021/11/17 02:32:16;;;;;;;12.55;8.35;;;;;;;;;;5038329;28;20214;-77
2021/11/17 02:34:53;;;;;;;11.98;8.25;;;;;;;;;;5035276;28;20611;-77
2021/11/17 02:37:29;;;;;;;15.55;9.25;;;;;;;;;;5029272;28;20209;-78
2021/11/17 02:40:04;;;;;;;15.88;10.50;;;;;;;;;;5022006;28;20688;-78
2021/11/17 02:42:40;;;;;;;17.15;9.52;;;;;;;;;;5030411;28;20225;-77
2021/11/17 02:45:14;;;;;;;17.13;9.73;;;;;;;;;;5042368;28;20598;-77
2021/11/17 02:47:48;;;;;;;19.80;10.23;;;;;;;;;;5029971;28;20207;-77
2021/11/17 02:50:22;;;;;;;18.50;9.93;;;;;;;;;;5014680;28;20548;-77
2021/11/17 02:52:57;;;;;;;15.73;9.30;;;;;;;;;;5014629;28;20235;-78
2021/11/17 02:55:38;;;;;;;22.73;9.82;;;;;;;;;;5015353;28;20210;-78
2021/11/17 02:58:13;;;;;;;13.68;9.27;;;;;;;;;;5035172;28;20603;-78
2021/11/17 03:00:49;;;;;;;14.90;8.70;;;;;;;;;;5040594;28;20203;-78
2021/11/17 03:03:24;;;;;;;15.45;10.02;;;;;;;;;;5024289;28;20547;-78
2021/11/17 03:05:57;;;;;;;18.42;10.43;;;;;;;;;;5014682;28;20215;-78
2021/11/17 03:08:34;;;;;;;14.27;8.38;;;;;;;;;;5014243;28;20307;-78
2021/11/17 03:11:08;;;;;;;18.20;10.63;;;;;;;;;;5014048;28;20226;-78
2021/11/17 03:13:42;;;;;;;17.25;9.45;;;;;;;;;;5032979;28;20812;-78
2021/11/17 03:16:15;;;;;;;25.58;9.95;;;;;;;;;;5042069;28;20191;-78
2021/11/17 03:18:50;;;;;;;20.27;11.15;;;;;;;;;;5032346;28;20207;-79
2021/11/17 03:21:24;;;;;;;16.67;9.85;;;;;;;;;;5034209;28;20218;-78
2021/11/17 03:24:00;;;;;;;16.30;9.02;;;;;;;;;;5034158;28;20290;-78
2021/11/17 03:26:34;;;;;;;16.00;10.02;;;;;;;;;;5033856;28;20218;-78
2021/11/17 03:29:16;;;;;;;18.17;9.75;;;;;;;;;;5040044;28;20598;-78
2021/11/17 03:31:54;;;;;;;16.70;9.65;;;;;;;;;;5048316;28;20218;-79
2021/11/17 03:34:28;;;;;;;14.95;9.80;;;;;;;;;;5048540;28;20198;-79
2021/11/17 03:37:05;;;;;;;15.73;9.45;;;;;;;;;;5013722;28;20206;-78
2021/11/17 03:39:47;;;;;;;15.65;8.88;;;;;;;;;;5014265;28;20199;-79
2021/11/17 03:42:24;;;;;;;14.90;9.73;;;;;;;;;;5033364;28;20321;-78
2021/11/17 03:45:00;;;;;;;16.38;9.82;;;;;;;;;;5039256;28;21203;-79
2021/11/17 03:47:34;;;;;;;18.55;10.35;;;;;;;;;;5031878;28;20210;-78
2021/11/17 03:50:10;;;;;;;16.33;9.95;;;;;;;;;;5018500;28;20226;-79
2021/11/17 03:52:44;;;;;;;16.60;9.98;;;;;;;;;;5013631;28;20238;-79
2021/11/17 03:55:18;;;;;;;19.35;10.27;;;;;;;;;;5016647;28;20199;-78
2021/11/17 03:57:53;;;;;;;15.07;10.20;;;;;;;;;;5039279;28;20199;-78
2021/11/17 04:00:28;;;;;;;18.88;10.90;;;;;;;;;;5038703;28;20656;-79
2021/11/17 04:03:02;;;;;;;17.08;10.20;;;;;;;;;;5033502;28;20222;-78
2021/11/17 04:05:44;;;;;;;15.20;9.57;;;;;;;;;;5013484;28;20220;-78
2021/11/17 04:08:17;;;;;;;15.95;9.75;;;;;;;;;;5013905;28;20215;-79
2021/11/17 04:10:51;;;;;;;18.10;11.07;;;;;;;;;;5021615;28;20204;-78
2021/11/17 04:13:25;;;;;;;14.48;9.27;;;;;;;;;;5034096;28;20222;-78
2021/11/17 04:15:58;;;;;;;20.52;9.90;;;;;;;;;;5025596;28;20321;-78
2021/11/17 04:18:31;;;;;;;19.10;10.40;;;;;;;;;;5022362;28;20200;-78
2021/11/17 04:21:07;;;;;;;17.90;9.82;;;;;;;;;;5040578;28;20599;-78
2021/11/17 04:23:41;;;;;;;17.88;9.75;;;;;;;;;;5048533;28;20671;-78
2021/11/17 04:26:19;;;;;;;16.52;9.90;;;;;;;;;;5038318;28;20709;-78
2021/11/17 04:28:54;;;;;;;19.60;11.35;;;;;;;;;;5013488;28;20668;-78
2021/11/17 04:31:28;;;;;;;17.83;10.85;;;;;;;;;;5013551;28;20228;-78
2021/11/17 04:34:06;;;;;;;15.93;9.65;;;;;;;;;;5029289;28;20654;-77
2021/11/17 04:36:40;;;;;;;19.17;10.13;;;;;;;;;;5034963;28;20217;-77
2021/11/17 04:39:17;;;;;;;15.68;9.75;;;;;;;;;;5015394;28;20246;-79
2021/11/17 04:41:54;;;;;;;16.70;10.45;;;;;;;;;;5033387;28;20226;-79
2021/11/17 04:44:29;;;;;;;17.48;9.10;;;;;;;;;;5042982;28;20198;-78
2021/11/17 04:47:04;;;;;;;15.63;9.25;;;;;;;;;;5018449;28;20270;-78
2021/11/17 04:49:38;;;;;;;15.13;9.45;;;;;;;;;;5016383;28;20191;-80
2021/11/17 04:52:12;;;;;;;17.45;10.48;;;;;;;;;;5031958;28;20241;-79
2021/11/17 04:54:49;;;;;;;15.02;10.48;;;;;;;;;;5031460;28;20207;-77
2021/11/17 04:57:26;;;;;;;15.23;9.05;;;;;;;;;;5038439;28;20190;-77
2021/11/17 05:00:02;;;;;;;17.58;9.43;;;;;;;;;;5034585;28;20199;-79
2021/11/17 05:02:36;;;;;;;14.03;8.97;;;;;;;;;;5032367;28;20618;-79
2021/11/17 05:05:12;;;;;;;16.48;10.25;;;;;;;;;;5028401;28;20824;-78
2021/11/17 05:07:44;;;;;;;15.80;10.20;;;;;;;;;;5012385;28;20219;-78
2021/11/17 05:10:18;;;;;;;22.98;10.35;;;;;;;;;;5027865;28;20466;-78
2021/11/17 05:12:50;;;;;;;17.23;9.55;;;;;;;;;;5039583;28;20224;-78
2021/11/17 05:15:23;;;;;;;16.75;10.25;;;;;;;;;;5030789;28;20298;-77
2021/11/17 05:17:55;;;;;;;20.70;11.45;;;;;;;;;;5027963;28;20205;-77
2021/11/17 05:20:28;;;;;;;17.30;10.82;;;;;;;;;;5011811;28;20210;-79
2021/11/17 05:23:02;;;;;;;18.77;9.95;;;;;;;;;;5012148;28;20222;-77
2021/11/17 05:25:37;;;;;;;15.68;9.45;;;;;;;;;;5035616;28;20512;-77
2021/11/17 05:28:11;;;;;;;14.98;8.60;;;;;;;;;;5037758;28;20212;-78
2021/11/17 05:30:46;;;;;;;14.52;9.90;;;;;;;;;;5029728;28;20208;-77
2021/11/17 05:33:19;;;;;;;17.48;10.02;;;;;;;;;;5011504;28;20199;-78
2021/11/17 05:35:52;;;;;;;18.60;10.70;;;;;;;;;;5011976;28;20204;-78
2021/11/17 05:38:25;;;;;;;16.05;9.55;;;;;;;;;;5022439;28;20207;-79
2021/11/17 05:40:58;;;;;;;13.95;9.15;;;;;;;;;;5038515;28;20202;-78
2021/11/17 05:43:33;;;;;;;15.18;9.80;;;;;;;;;;5037719;28;20260;-78
2021/11/17 05:46:09;;;;;;;16.45;9.52;;;;;;;;;;5031904;28;20594;-78
2021/11/17 05:48:42;;;;;;;14.73;9.10;;;;;;;;;;5031687;28;20197;-78
2021/11/17 05:51:15;;;;;;;15.52;9.20;;;;;;;;;;5031630;28;20226;-78
2021/11/17 05:53:48;;;;;;;16.63;10.30;;;;;;;;;;5030364;28;20227;-79
2021/11/17 05:56:25;;;;;;;18.38;10.73;;;;;;;;;;5038893;28;20195;-77
2021/11/17 05:59:05;;;;;;;17.60;10.37;;;;;;;;;;5035039;28;20652;-79
2021/11/17 06:01:42;;;;;;;17.80;9.50;;;;;;;;;;5030507;28;20458;-78
2021/11/17 06:04:11;;;;;;;14.98;9.07;;;;;;;;;;5012015;28;20203;-78
2021/11/17 06:06:38;;;;;;;15.00;10.40;;;;;;;;;;5011310;28;20637;-79
2021/11/17 06:09:06;;;;;;;16.30;10.38;;;;;;;;;;5022751;28;20199;-79
2021/11/17 06:11:35;;;;;;;16.55;10.48;;;;;;;;;;5032188;28;20314;-78
2021/11/17 06:14:03;;;;;;;20.35;11.45;;;;;;;;;;5033437;28;20249;-78
2021/11/17 06:16:31;;;;;;;18.75;10.63;;;;;;;;;;5017700;28;20194;-77
2021/11/17 06:18:58;;;;;;;20.00;11.48;;;;;;;;;;5033098;28;20198;-78
2021/11/17 06:21:25;;;;;;;15.85;9.80;;;;;;;;;;5032836;28;20221;-78
2021/11/17 06:23:54;;;;;;;21.92;9.93;;;;;;;;;;5030991;28;20203;-78
2021/11/17 06:26:22;;;;;;;16.70;9.90;;;;;;;;;;5012993;28;20227;-78
2021/11/17 06:28:53;;;;;;;15.02;10.57;;;;;;;;;;5012258;28;20295;-78
2021/11/17 06:31:21;;;;;;;14.40;10.60;;;;;;;;;;5031708;28;20223;-79
2021/11/17 06:33:48;;;;;;;15.57;10.73;;;;;;;;;;5030435;28;20198;-78
2021/11/17 06:36:16;;;;;;;18.50;9.85;;;;;;;;;;5013637;28;20204;-78
2021/11/17 06:38:44;;;;;;;19.63;10.88;;;;;;;;;;5020626;28;20239;-78
2021/11/17 06:41:11;;;;;;;19.13;9.38;;;;;;;;;;5036399;28;20234;-78
2021/11/17 06:43:39;;;;;;;15.98;10.13;;;;;;;;;;5029687;28;20219;-77
2021/11/17 06:46:08;;;;;;;17.17;10.27;;;;;;;;;;5017544;28;20196;-78
2021/11/17 06:48:36;;;;;;;17.33;9.82;;;;;;;;;;4997714;28;20192;-78
2021/11/17 06:51:04;;;;;;;15.20;9.23;;;;;;;;;;5029466;28;20215;-77
2021/11/17 06:53:31;;;;;;;20.10;10.73;;;;;;;;;;5030722;28;20230;-78
2021/11/17 06:55:58;;;;;;;19.08;9.95;;;;;;;;;;5030393;28;20294;-77
2021/11/17 06:58:26;;;;;;;15.20;9.38;;;;;;;;;;5034489;28;20191;-77
2021/11/17 07:00:55;;;;;;;18.48;10.20;;;;;;;;;;5037103;28;20191;-77
2021/11/17 07:03:26;;;;;;;15.98;9.65;;;;;;;;;;5013166;28;20204;-76
2021/11/17 07:05:54;;;;;;;16.75;10.65;;;;;;;;;;5013923;28;20201;-76
2021/11/17 07:08:23;;;;;;;16.60;10.13;;;;;;;;;;5023056;28;20251;-77
2021/11/17 07:10:50;;;;;;;15.60;9.05;;;;;;;;;;5015388;28;20195;-77
2021/11/17 07:13:17;;;;;;;15.35;9.27;;;;;;;;;;5035955;28;20197;-77
2021/11/17 07:15:45;;;;;;;14.95;8.73;;;;;;;;;;5035139;28;20280;-77
2021/11/17 07:18:12;;;;;;;14.60;9.38;;;;;;;;;;5031218;28;20218;-77
2021/11/17 07:20:41;;;;;;;15.50;8.90;;;;;;;;;;5049864;28;20250;-77
2021/11/17 07:23:09;;;;;;;17.60;10.80;;;;;;;;;;5054002;28;20242;-77
2021/11/17 07:25:36;;;;;;;15.55;9.20;;;;;;;;;;5034778;28;20207;-77
2021/11/17 07:28:03;;;;;;;16.27;8.63;;;;;;;;;;5036999;28;20219;-77
2021/11/17 07:30:33;;;;;;;16.45;10.10;;;;;;;;;;5041316;28;20613;-77
2021/11/17 07:33:01;;;;;;;18.45;9.40;;;;;;;;;;5035679;28;20251;-77
2021/11/17 07:35:29;;;;;;;12.90;7.60;;;;;;;;;;5030673;28;20279;-87
2021/11/17 07:38:01;;;;;;;11.55;7.45;;;;;;;;;;5013991;28;20203;-81
2021/11/17 07:40:28;;;;;;;11.60;8.07;;;;;;;;;;5014317;28;20261;-81
2021/11/17 07:42:55;;;;;;;12.05;8.02;;;;;;;;;;5028345;28;20230;-77
2021/11/17 07:45:24;;;;;;;14.35;8.20;;;;;;;;;;5040712;28;20195;-78
2021/11/17 07:47:51;;;;;;;11.43;8.27;;;;;;;;;;5046196;28;20215;-79
2021/11/17 07:50:19;;;;;;;12.65;7.63;;;;;;;;;;5034191;28;20205;-78
2021/11/17 07:52:46;;;;;;;15.10;8.23;;;;;;;;;;5033754;28;20230;-78
2021/11/17 07:55:16;;;;;;;17.80;8.95;;;;;;;;;;5053683;28;20455;-78
2021/11/17 07:57:44;;;;;;;13.20;8.90;;;;;;;;;;5042367;28;20215;-77
2021/11/17 08:00:13;;;;;;;14.30;9.07;;;;;;;;;;5041325;28;20453;-77
2021/11/17 08:02:40;;;;;;;13.87;8.63;;;;;;;;;;5028857;28;20986;-77
2021/11/17 08:05:08;;;;;;;13.50;8.40;;;;;;;;;;5027136;28;20463;-76
2021/11/17 08:07:36;;;;;;;14.17;8.90;;;;;;;;;;5012851;28;20483;-77
2021/11/17 08:10:04;;;;;;;13.90;8.70;;;;;;;;;;5013571;28;20447;-77
2021/11/17 08:12:33;;;;;;;13.90;8.40;;;;;;;;;;5018858;28;20488;-77
2021/11/17 08:15:00;;;;;;;13.50;8.20;;;;;;;;;;5015685;28;20439;-77
2021/11/17 08:17:27;;;;;;;12.07;7.03;;;;;;;;;;5025498;28;20950;-77
2021/11/17 08:19:55;;;;;;;11.43;7.67;;;;;;;;;;5035664;28;20435;-78
2021/11/17 08:22:22;;;;;;;12.20;8.27;;;;;;;;;;5038862;28;20473;-77
2021/11/17 08:24:49;;;;;;;11.57;7.43;;;;;;;;;;5040657;28;20443;-77
2021/11/17 08:27:19;;;;;;;11.67;7.07;;;;;;;;;;5013182;28;20486;-77
2021/11/17 08:29:49;;;;;;;10.80;7.20;;;;;;;;;;5011269;28;20447;-77
2021/11/17 08:32:16;;;;;;;10.47;6.57;;;;;;;;;;5012987;28;20578;-78
2021/11/17 08:34:43;;;;;;;10.53;6.77;;;;;;;;;;5019930;28;20477;-77
2021/11/17 08:37:11;;;;;;;11.87;6.47;;;;;;;;;;5035326;28;20440;-79
2021/11/17 08:39:40;;;;;;;11.43;6.13;;;;;;;;;;5024888;28;20458;-78
2021/11/17 08:42:08;;;;;;;10.67;6.10;;;;;;;;;;5014005;28;20480;-79
2021/11/17 08:44:35;;;;;;;10.03;7.13;;;;;;;;;;5036889;28;20441;-79
2021/11/17 08:47:04;;;;;;;8.50;5.60;;;;;;;;;;5038627;28;20476;-77
2021/11/17 08:49:31;;;;;;;8.40;6.00;;;;;;;;;;5032029;28;20449;-81
2021/11/17 08:54:24;;;;;;;7.70;5.87;;;;;;;;;;5032123;28;20427;-79
2021/11/17 08:56:51;;;;;;;11.73;7.47;;;;;;;;;;5029321;28;20959;-82
2021/11/17 08:59:18;;;;;;;10.43;6.90;;;;;;;;;;5037686;28;20520;-79
2021/11/17 09:01:46;;;;;;;10.10;7.13;;;;;;;;;;5040313;28;20448;-76
2021/11/17 09:04:14;;;;;;;11.23;7.03;;;;;;;;;;5046647;28;20448;-78
2021/11/17 09:06:42;;;;;;;9.20;6.77;;;;;;;;;;5012747;28;20450;-75
2021/11/17 09:09:09;;;;;;;9.70;7.10;;;;;;;;;;5011464;28;20506;-77
2021/11/17 09:11:38;;;;;;;16.43;8.47;;;;;;;;;;5011920;28;20459;-78
2021/11/17 09:14:06;;;;;;;14.30;9.27;;;;;;;;;;5033150;28;20454;-78
2021/11/17 09:16:33;;;;;;;14.40;8.27;;;;;;;;;;5001349;28;20466;-77
2021/11/17 09:19:01;;;;;;;13.53;7.87;;;;;;;;;;5014846;28;20451;-78
2021/11/17 09:21:32;;;;;;;10.53;7.43;;;;;;;;;;5034045;28;20472;-77
2021/11/17 09:24:00;;;;;;;12.47;7.90;;;;;;;;;;5039951;28;20446;-78
2021/11/17 09:26:27;;;;;;;10.60;7.93;;;;;;;;;;5012293;28;20443;-78
2021/11/17 09:28:55;;;;;;;11.57;8.17;;;;;;;;;;5011248;28;21007;-78
2021/11/17 09:31:23;;;;;;;12.13;8.07;;;;;;;;;;5012166;28;20471;-77
2021/11/17 09:33:51;;;;;;;13.33;8.90;;;;;;;;;;5010202;28;20446;-78
2021/11/17 09:36:19;;;;;;;13.87;7.63;;;;;;;;;;5031441;28;20462;-77
2021/11/17 09:38:50;;;;;;;9.93;6.90;;;;;;;;;;5015098;28;20445;-77
2021/11/17 09:41:19;;;;;;;13.83;8.37;;;;;;;;;;5033104;28;20993;-77
2021/11/17 09:43:48;;;;;;;11.03;7.23;;;;;;;;;;5014888;28;20461;-78
2021/11/17 09:46:19;;;;;;;16.93;8.03;;;;;;;;;;5037836;28;20438;-77
2021/11/17 09:48:47;;;;;;;11.60;7.63;;;;;;;;;;4994281;28;20479;-76
2021/11/17 09:51:16;;;;;;;12.30;8.20;;;;;;;;;;5010696;28;20473;-78
2021/11/17 09:53:45;;;;;;;9.80;6.60;;;;;;;;;;4993835;28;20483;-77
2021/11/17 09:56:16;;;;;;;13.60;8.20;;;;;;;;;;5015807;28;20438;-75
2021/11/17 09:58:46;;;;;;;17.13;7.53;;;;;;;;;;5013617;28;20447;-78
2021/11/17 10:01:20;;;;;;;12.17;6.70;;;;;;;;;;5012909;28;21065;-78
2021/11/17 10:03:49;;;;;;;11.47;7.43;;;;;;;;;;5023905;28;20826;-78
2021/11/17 10:06:38;;;;;;;8.07;5.80;;;;;;;;;;5038573;28;20429;-77
2021/11/17 10:12:02;;;;;;;8.27;5.80;;;;;;;;;;4995332;28;20459;-79
2021/11/17 10:14:33;;;;;;;9.40;6.33;;;;;;;;;;4995098;28;20478;-77
2021/11/17 10:17:01;;;;;;;10.23;6.60;;;;;;;;;;5018482;28;20457;-77
2021/11/17 10:19:29;;;;;;;7.97;5.60;;;;;;;;;;5030064;28;20464;-78
2021/11/17 10:21:59;;;;;;;10.10;6.23;;;;;;;;;;5018358;28;21065;-76
2021/11/17 10:24:39;;;;;;;11.33;7.20;;;;;;;;;;5027651;28;20461;-77
2021/11/17 10:27:08;;;;;;;9.00;6.40;;;;;;;;;;5029581;28;21173;-77
2021/11/17 10:29:37;;;;;;;8.60;6.60;;;;;;;;;;5029973;28;20445;-77
2021/11/17 10:32:06;;;;;;;10.57;7.23;;;;;;;;;;5012669;28;20458;-77
2021/11/17 10:34:39;;;;;;;10.87;6.60;;;;;;;;;;5013975;28;20468;-79
2021/11/17 10:37:09;;;;;;;13.20;7.13;;;;;;;;;;5037625;28;20446;-78
2021/11/17 10:39:43;;;;;;;9.77;6.60;;;;;;;;;;5021678;28;20825;-78
2021/11/17 10:42:13;;;;;;;10.20;6.40;;;;;;;;;;5015336;28;20500;-78
2021/11/17 10:44:42;;;;;;;9.63;7.13;;;;;;;;;;5013221;28;20453;-78
2021/11/17 10:47:15;;;;;;;10.37;7.53;;;;;;;;;;5031003;28;20540;-77
2021/11/17 10:49:44;;;;;;;9.03;6.33;;;;;;;;;;5032558;28;20502;-77
2021/11/17 10:52:14;;;;;;;11.07;7.80;;;;;;;;;;5023031;28;20484;-77
2021/11/17 10:54:47;;;;;;;10.20;6.20;;;;;;;;;;5036575;28;20449;-77
2021/11/17 10:57:18;;;;;;;12.50;6.03;;;;;;;;;;5034861;28;20475;-77
2021/11/17 10:59:46;;;;;;;10.70;7.20;;;;;;;;;;5018775;28;20463;-77
2021/11/17 11:02:13;;;;;;;10.10;7.27;;;;;;;;;;5014387;28;20493;-78
2021/11/17 11:04:41;;;;;;;9.33;6.23;;;;;;;;;;5026541;28;20454;-77
2021/11/17 11:07:10;;;;;;;11.00;6.70;;;;;;;;;;5039739;28;20457;-78
2021/11/17 11:09:42;;;;;;;9.70;6.90;;;;;;;;;;5041907;28;20481;-78
2021/11/17 11:12:10;;;;;;;8.97;6.17;;;;;;;;;;5042002;28;20478;-78
2021/11/17 11:14:40;;;;;;;11.50;7.13;;;;;;;;;;5031742;28;20481;-77
2021/11/17 11:17:22;;;;;;;10.07;7.00;;;;;;;;;;5034295;28;20452;-78
2021/11/17 11:19:50;;;;;;;12.60;7.37;;;;;;;;;;5016012;28;20454;-77
2021/11/17 11:22:18;;;;;;;9.87;6.50;;;;;;;;;;5036621;28;20476;-78
2021/11/17 11:24:48;;;;;;;12.17;7.30;;;;;;;;;;5023582;28;20439;-77
2021/11/17 11:27:17;;;;;;;16.10;8.37;;;;;;;;;;5049670;28;20437;-77
2021/11/17 11:29:47;;;;;;;14.37;8.47;;;;;;;;;;5035272;28;20761;-78
2021/11/17 11:32:29;;;;;;;14.67;8.73;;;;;;;;;;5036620;28;21007;-77
2021/11/17 11:35:11;;;;;;;13.40;7.70;;;;;;;;;;5018086;28;20448;-77
2021/11/17 11:37:53;;;;;;;11.73;7.30;;;;;;;;;;5016758;28;20459;-77
2021/11/17 11:40:29;;;;;;;10.97;6.77;;;;;;;;;;5024878;28;20530;-77
2021/11/17 11:43:11;;;;;;;11.20;7.60;;;;;;;;;;5019962;28;20536;-78
2021/11/17 11:45:42;;;;;;;13.97;9.03;;;;;;;;;;5024169;28;20430;-76
2021/11/17 11:48:11;;;;;;;10.50;7.67;;;;;;;;;;5041176;28;20473;-78
2021/11/17 11:50:53;;;;;;;12.57;8.30;;;;;;;;;;5050441;28;20912;-77
2021/11/17 11:53:22;;;;;;;12.73;7.93;;;;;;;;;;5018063;28;20480;-77
2021/11/17 11:56:04;;;;;;;10.00;7.37;;;;;;;;;;5003722;28;20455;-77
2021/11/17 11:58:34;;;;;;;13.40;8.23;;;;;;;;;;5020598;28;20493;-77
2021/11/17 12:01:06;;;;;;;9.77;6.93;;;;;;;;;;5016726;28;20515;-77
2021/11/17 12:03:35;;;;;;;12.27;8.23;;;;;;;;;;5022510;28;20444;-79
2021/11/17 12:06:04;;;;;;;12.80;7.63;;;;;;;;;;5020762;28;20442;-76
2021/11/17 12:08:33;;;;;;;11.90;6.77;;;;;;;;;;5031546;28;20501;-78
2021/11/17 12:11:09;;;;;;;12.07;8.00;;;;;;;;;;5028183;28;20493;-77
2021/11/17 12:13:38;;;;;;;12.33;8.70;;;;;;;;;;5012365;28;20960;-76
2021/11/17 12:16:22;;;;;;;11.33;7.70;;;;;;;;;;5018243;28;20953;-77
2021/11/17 12:18:50;;;;;;;11.90;8.50;;;;;;;;;;5037507;28;21274;-78
2021/11/17 12:21:19;;;;;;;10.10;7.60;;;;;;;;;;5034433;28;20479;-77
2021/11/17 12:23:47;;;;;;;16.37;8.00;;;;;;;;;;5024011;28;20449;-78
2021/11/17 12:26:19;;;;;;;12.23;8.53;;;;;;;;;;5015945;28;20445;-78
2021/11/17 12:28:49;;;;;;;10.73;7.57;;;;;;;;;;5031920;28;20543;-77
2021/11/17 12:31:21;;;;;;;12.93;7.10;;;;;;;;;;5045563;28;20511;-77
2021/11/17 12:33:50;;;;;;;12.37;8.30;;;;;;;;;;5026348;28;20453;-77
2021/11/17 12:36:20;;;;;;;14.33;8.27;;;;;;;;;;5017644;28;20446;-78
2021/11/17 12:38:48;;;;;;;10.30;7.57;;;;;;;;;;5010858;28;20459;-78
2021/11/17 12:41:19;;;;;;;12.60;9.03;;;;;;;;;;5040605;28;20456;-78
2021/11/17 12:43:47;;;;;;;14.43;9.67;;;;;;;;;;5014215;28;20473;-77
2021/11/17 12:46:16;;;;;;;14.50;8.90;;;;;;;;;;5014145;28;20442;-78
2021/11/17 12:48:47;;;;;;;12.53;8.33;;;;;;;;;;5031788;28;20485;-78
2021/11/17 12:51:17;;;;;;;13.40;8.53;;;;;;;;;;5031498;28;20470;-77
2021/11/17 12:53:47;;;;;;;11.10;8.10;;;;;;;;;;5036468;28;20500;-78
2021/11/17 12:56:16;;;;;;;10.87;8.30;;;;;;;;;;5034823;28;20533;-77
2021/11/17 12:58:45;;;;;;;12.00;9.10;;;;;;;;;;5031294;28;20463;-79
2021/11/17 13:01:18;;;;;;;13.90;8.40;;;;;;;;;;5035035;28;20958;-77
2021/11/17 13:03:59;;;;;;;15.73;8.50;;;;;;;;;;5018363;28;20547;-77
2021/11/17 13:06:29;;;;;;;13.53;8.27;;;;;;;;;;5018613;28;20445;-77
2021/11/17 13:09:11;;;;;;;12.10;8.20;;;;;;;;;;5031892;28;20481;-77
2021/11/17 13:11:53;;;;;;;13.43;8.90;;;;;;;;;;5010380;28;20488;-77
2021/11/17 13:14:24;;;;;;;14.70;9.60;;;;;;;;;;5024954;28;20441;-77
2021/11/17 13:16:52;;;;;;;14.13;8.70;;;;;;;;;;5033112;28;20472;-75
2021/11/17 13:19:22;;;;;;;12.40;8.63;;;;;;;;;;5036190;28;20454;-78
2021/11/17 13:21:53;;;;;;;12.47;9.80;;;;;;;;;;5043237;28;20489;-77
2021/11/17 13:24:30;;;;;;;24.53;9.97;;;;;;;;;;5026728;28;20553;-77
2021/11/17 13:27:12;;;;;;;15.23;9.77;;;;;;;;;;5013483;28;20434;-78
2021/11/17 13:29:48;;;;;;;14.50;9.40;;;;;;;;;;5016627;28;20474;-77
2021/11/17 13:32:20;;;;;;;14.40;9.47;;;;;;;;;;5043942;28;20818;-79
2021/11/17 13:34:50;;;;;;;18.17;11.10;;;;;;;;;;5038946;28;20441;-77
2021/11/17 13:37:20;;;;;;;20.60;11.03;;;;;;;;;;5025842;28;20469;-78
2021/11/17 13:39:47;;;;;;;14.37;10.60;;;;;;;;;;5000950;28;20442;-78
2021/11/17 13:42:15;;;;;;;18.27;11.03;;;;;;;;;;5030956;28;20461;-77
2021/11/17 13:44:42;;;;;;;20.97;11.40;;;;;;;;;;5013766;28;20795;-79
2021/11/17 13:47:10;;;;;;;17.47;11.27;;;;;;;;;;5033336;28;20470;-79
2021/11/17 13:49:38;;;;;;;19.00;12.33;;;;;;;;;;5018665;28;20482;-78
2021/11/17 13:52:08;;;;;;;20.33;12.20;;;;;;;;;;5024730;28;20480;-79
2021/11/17 13:54:35;;;;;;;20.50;12.10;;;;;;;;;;5030878;28;20448;-80
2021/11/17 13:57:04;;;;;;;18.90;11.40;;;;;;;;;;5026665;28;20548;-79
2021/11/17 13:59:31;;;;;;;21.97;12.50;;;;;;;;;;5010347;28;20445;-78
2021/11/17 14:01:58;;;;;;;23.23;13.30;;;;;;;;;;5025193;28;20481;-79
2021/11/17 14:04:26;;;;;;;22.57;11.67;;;;;;;;;;5036089;28;20812;-78
2021/11/17 14:06:54;;;;;;;27.10;13.83;;;;;;;;;;5039587;28;20442;-79
2021/11/17 14:09:23;;;;;;;19.77;12.43;;;;;;;;;;5034305;28;20482;-77
2021/11/17 14:11:50;;;;;;;26.80;14.80;;;;;;;;;;5030071;28;20462;-77
2021/11/17 14:14:18;;;;;;;29.37;13.97;;;;;;;;;;5030412;28;21025;-78
2021/11/17 14:16:45;;;;;;;20.67;13.47;;;;;;;;;;5029587;28;20458;-76
2021/11/17 14:19:12;;;;;;;27.67;14.37;;;;;;;;;;5035773;28;20468;-77
2021/11/17 14:21:40;;;;;;;24.30;13.63;;;;;;;;;;5040135;28;20461;-77
2021/11/17 14:24:07;;;;;;;25.13;15.23;;;;;;;;;;5008210;28;20978;-78
2021/11/17 14:26:36;;;;;;;24.53;14.87;;;;;;;;;;4995290;28;20837;-79
2021/11/17 14:29:05;;;;;;;25.57;15.97;;;;;;;;;;5015745;28;20483;-78
2021/11/17 14:31:37;;;;;;;35.23;17.83;;;;;;;;;;5015463;28;20972;-78
2021/11/17 14:34:04;;;;;;;29.23;16.30;;;;;;;;;;5000295;28;20812;-78
2021/11/17 14:36:34;;;;;;;30.53;15.97;;;;;;;;;;5016047;28;20442;-78
2021/11/17 14:39:03;;;;;;;29.57;16.50;;;;;;;;;;5000034;28;20443;-78
2021/11/17 14:41:31;;;;;;;28.90;15.40;;;;;;;;;;5021394;28;20477;-77
2021/11/17 14:43:59;;;;;;;28.40;15.93;;;;;;;;;;5045839;28;20433;-77
2021/11/17 14:46:27;;;;;;;27.70;15.70;;;;;;;;;;5054738;28;20452;-77
2021/11/17 14:48:54;;;;;;;26.73;15.70;;;;;;;;;;5054608;28;20445;-77
2021/11/17 14:51:21;;;;;;;27.97;16.17;;;;;;;;;;5054105;28;20981;-78
2021/11/17 14:53:50;;;;;;;31.20;18.47;;;;;;;;;;5025794;28;20987;-79
2021/11/17 14:56:18;;;;;;;30.47;18.33;;;;;;;;;;4999979;28;20473;-78
2021/11/17 14:58:46;;;;;;;29.33;16.23;;;;;;;;;;4999927;28;20865;-78
2021/11/17 15:01:17;;;;;;;30.27;18.27;;;;;;;;;;5015901;28;20458;-78
2021/11/17 15:03:45;;;;;;;31.17;17.97;;;;;;;;;;5022185;28;20946;-78
2021/11/17 15:06:12;;;;;;;32.83;19.53;;;;;;;;;;5045331;28;20441;-77
2021/11/17 15:08:39;;;;;;;29.83;18.33;;;;;;;;;;5054846;28;20441;-77
2021/11/17 15:11:07;;;;;;;33.07;19.37;;;;;;;;;;5016175;28;20494;-77
2021/11/17 15:13:35;;;;;;;33.20;18.13;;;;;;;;;;5014380;28;20469;-78
2021/11/17 15:16:02;;;;;;;31.40;18.77;;;;;;;;;;5002276;28;20541;-79
2021/11/17 15:18:30;;;;;;;31.33;18.23;;;;;;;;;;5040873;28;20457;-78
2021/11/17 15:20:58;;;;;;;33.10;19.50;;;;;;;;;;5031227;28;20467;-79
2021/11/17 15:23:43;;;;;;;32.83;19.70;;;;;;;;;;5033149;28;20969;-78
2021/11/17 15:26:11;;;;;;;29.93;18.50;;;;;;;;;;4997782;28;20458;-78
2021/11/17 15:28:40;;;;;;;29.83;18.77;;;;;;;;;;5008384;28;20458;-77
2021/11/17 15:31:08;;;;;;;31.10;18.20;;;;;;;;;;5023533;28;20559;-76
2021/11/17 15:33:37;;;;;;;30.20;19.23;;;;;;;;;;5021073;28;20457;-75
2021/11/17 15:36:06;;;;;;;25.97;16.63;;;;;;;;;;5028355;28;20445;-76
2021/11/17 15:38:33;;;;;;;28.40;16.00;;;;;;;;;;5022658;28;20459;-75
2021/11/17 15:41:02;;;;;;;28.03;16.33;;;;;;;;;;5025866;28;20465;-76
2021/11/17 15:43:30;;;;;;;24.87;14.23;;;;;;;;;;5015643;28;20449;-76
2021/11/17 15:45:58;;;;;;;30.20;16.70;;;;;;;;;;5017965;28;20457;-77
2021/11/17 15:48:26;;;;;;;23.50;15.60;;;;;;;;;;5021777;28;20453;-76
2021/11/17 15:51:05;;;;;;;26.90;15.47;;;;;;;;;;5023424;28;20493;-76
2021/11/17 15:53:32;;;;;;;30.23;17.83;;;;;;;;;;5019594;28;20512;-76
2021/11/17 15:56:00;;;;;;;30.43;16.00;;;;;;;;;;5032004;28;20880;-76
2021/11/17 15:58:27;;;;;;;28.50;16.90;;;;;;;;;;5015172;28;20472;-77
2021/11/17 16:00:55;;;;;;;36.33;17.37;;;;;;;;;;5033604;28;20468;-76
2021/11/17 16:03:22;;;;;;;32.13;16.70;;;;;;;;;;5038492;28;20957;-78
2021/11/17 16:05:49;;;;;;;35.93;18.00;;;;;;;;;;5035334;28;20943;-76
2021/11/17 16:08:20;;;;;;;37.70;20.47;;;;;;;;;;5027075;28;20831;-76
2021/11/17 16:10:47;;;;;;;38.70;18.77;;;;;;;;;;5033064;28;20824;-76
2021/11/17 16:13:14;;;;;;;33.90;19.17;;;;;;;;;;5020333;28;20481;-76
2021/11/17 16:15:43;;;;;;;28.80;16.47;;;;;;;;;;5029363;28;20461;-77
2021/11/17 16:18:10;;;;;;;26.93;16.80;;;;;;;;;;5039560;28;20783;-76
2021/11/17 16:20:46;;;;;;;34.17;19.17;;;;;;;;;;5024341;28;20466;-76
2021/11/17 16:26:00;;;;;;;32.83;19.80;;;;;;;;;;5017554;28;20430;-77
2021/11/17 16:28:28;;;;;;;34.10;19.10;;;;;;;;;;5021996;28;20454;-77
2021/11/17 16:30:57;;;;;;;38.80;20.67;;;;;;;;;;5019804;28;20909;-76
2021/11/17 16:33:34;;;;;;;27.67;17.10;;;;;;;;;;4997759;28;20541;-76
2021/11/17 16:36:02;;;;;;;33.57;19.60;;;;;;;;;;5034562;28;20449;-79
2021/11/17 16:38:30;;;;;;;35.07;18.27;;;;;;;;;;5019173;28;20441;-78
2021/11/17 16:40:59;;;;;;;36.00;19.57;;;;;;;;;;5037973;28;20430;-77
2021/11/17 16:43:27;;;;;;;38.23;19.10;;;;;;;;;;5038001;28;20488;-78
2021/11/17 16:45:55;;;;;;;36.20;18.77;;;;;;;;;;5017029;28;20455;-78
2021/11/17 16:48:24;;;;;;;37.53;20.03;;;;;;;;;;4995873;28;20443;-78
2021/11/17 16:50:52;;;;;;;38.33;22.47;;;;;;;;;;5013170;28;21218;-77
2021/11/17 16:53:20;;;;;;;38.00;20.63;;;;;;;;;;5025360;28;20990;-78
2021/11/17 16:55:48;;;;;;;35.13;21.10;;;;;;;;;;5031678;28;20453;-79
2021/11/17 16:58:18;;;;;;;34.13;20.40;;;;;;;;;;5032967;28;20811;-78
2021/11/17 17:00:46;;;;;;;39.10;22.43;;;;;;;;;;5035210;28;20555;-78
2021/11/17 17:03:14;;;;;;;34.00;20.20;;;;;;;;;;5040137;28;20437;-77
2021/11/17 17:05:43;;;;;;;42.27;22.03;;;;;;;;;;5020178;28;20453;-78
2021/11/17 17:08:13;;;;;;;39.30;23.13;;;;;;;;;;5015125;28;20816;-78
2021/11/17 17:10:41;;;;;;;39.00;20.60;;;;;;;;;;5032331;28;20477;-77
2021/11/17 17:13:09;;;;;;;41.43;22.90;;;;;;;;;;5013650;28;20461;-76
2021/11/17 17:15:42;;;;;;;40.67;20.73;;;;;;;;;;5035081;28;20488;-77
2021/11/17 17:18:13;;;;;;;40.90;21.47;;;;;;;;;;5039963;28;20447;-77
2021/11/17 17:20:42;;;;;;;40.53;23.37;;;;;;;;;;5004000;28;20553;-79